Home > Products > Valid Products > TAF

000
FTUS44 KLUB 282324
TAFCDS
TAF
KCDS 282324Z 2900/2924 16011KT P6SM OVC120
     FM291000 18007KT P6SM BKN015
     FM291800 26010KT P6SM BKN050=



000
FTUS44 KLUB 282324
TAFLBB
TAF
KLBB 282324Z 2900/2924 20014KT P6SM -TSRA SCT070CB OVC100
     FM290100 18011KT P6SM SCT080 BKN120
     FM290600 18009KT 5SM BR OVC012
     FM291900 15009KT P6SM BKN050=



000
FTUS44 KLUB 282324
TAFCDS
TAF
KCDS 282324Z 2900/2924 16011KT P6SM OVC120
     FM291000 18007KT P6SM BKN015
     FM291800 26010KT P6SM BKN050=



000
FTUS44 KLUB 282324
TAFLBB
TAF
KLBB 282324Z 2900/2924 20014KT P6SM -TSRA SCT070CB OVC100
     FM290100 18011KT P6SM SCT080 BKN120
     FM290600 18009KT 5SM BR OVC012
     FM291900 15009KT P6SM BKN050=



000
FTUS44 KLUB 281732
TAFLBB
TAF
KLBB 281732Z 2818/2918 07011KT P6SM -TSRA SCT025CB BKN070
      TEMPO 2818/2822 VRB20KT 6SM TSRA BKN025CB
     FM282200 16011KT P6SM SCT030 BKN100
      TEMPO 2822/2902 VRB20KT 6SM TSRA BKN030CB
     FM290700 19009KT 5SM BR OVC015=



000
FTUS44 KLUB 281732
TAFCDS
TAF
KCDS 281732Z 2818/2918 11011KT 6SM TSRA BKN025CB OVC100
     FM290000 12010KT P6SM BKN020 OVC070
      TEMPO 2900/2904 VRB20KT 6SM TSRA OVC020CB
     FM290800 10007KT 6SM BR FEW005 BKN015 BKN150=



000
FTUS44 KLUB 281653 AAC
TAFLBB
TAF AMD
KLBB 281653Z 2817/2912 04010KT P6SM BKN020 OVC070
      TEMPO 2817/2820 VRB20KT 6SM TSRA BKN020CB
     FM282300 VRB10G20KT 6SM -TSRA BKN025CB
     FM290300 11012KT P6SM BKN020=



000
FTUS44 KLUB 281254 AAB
TAFLBB
TAF AMD
KLBB 281254Z 2813/2912 11012KT 6SM BR BKN006 OVC035
     FM281500 13014KT P6SM VCTS BKN035CB OVC070
     FM281700 16017KT P6SM SCT035 BKN150
     FM282300 VRB10G20KT 6SM -TSRA BKN025CB
     FM290300 11012KT P6SM BKN020=



000
FTUS44 KLUB 281243 AAB
TAFCDS
TAF AMD
KCDS 281243Z 2813/2912 19009KT P6SM SCT050 SCT200
     FM281400 18010KT P6SM BKN030
     FM281800 16014KT P6SM SCT030 BKN150
     FM282300 VRB10G20KT 6SM -TSRA BKN020CB OVC070
     FM290800 10007KT P6SM FEW005 SCT040 BKN150=



000
FTUS44 KLUB 281243 AAB
TAFCDS
TAF AMD
KCDS 281243Z 2813/2912 19009KT P6SM SCT050 SCT200
     FM281400 18010KT P6SM BKN030
     FM281800 16014KT P6SM SCT030 BKN150
     FM282300 VRB10G20KT 6SM -TSRA BKN020CB OVC070
     FM290800 10007KT P6SM FEW005 SCT040 BKN150=



000
FTUS44 KLUB 281235 AAA
TAFLBB
TAF AMD
KLBB 281235Z 2813/2912 11012KT 6SM BR BKN006 OVC035
     FM281600 16017KT P6SM SCT035 BKN150
     FM282300 VRB10G20KT 6SM -TSRA BKN025CB
     FM290300 11012KT P6SM BKN020=



000
FTUS44 KLUB 281143 AAA
TAFCDS
TAF AMD
KCDS 281143Z 2812/2912 16009KT P6SM SCT020 OVC040
      TEMPO 2812/2815 5SM BR BKN020
     FM281700 16014KT P6SM SCT030 BKN150
     FM282300 VRB10G20KT 6SM -TSRA BKN020CB OVC070
     FM290800 10007KT P6SM FEW005 SCT040 BKN150=



000
FTUS44 KLUB 281143 AAA
TAFCDS
TAF AMD
KCDS 281143Z 2812/2912 16009KT P6SM SCT020 OVC040
      TEMPO 2812/2815 5SM BR BKN020
     FM281700 16014KT P6SM SCT030 BKN150
     FM282300 VRB10G20KT 6SM -TSRA BKN020CB OVC070
     FM290800 10007KT P6SM FEW005 SCT040 BKN150=



000
FTUS44 KLUB 281141
TAFLBB
TAF
KLBB 281141Z 2812/2912 13011KT P6SM OVC035
     FM281600 16017KT P6SM SCT035 BKN150
     FM282300 VRB10G20KT 6SM -TSRA BKN025CB
     FM290300 11012KT P6SM BKN020=



000
FTUS44 KLUB 281141
TAFCDS
TAF
KCDS 281141Z 2812/2912 16009KT P6SM FEW005 SCT050
      TEMPO 2812/2815 5SM BR BKN005
     FM281700 16014KT P6SM SCT030 BKN150
     FM282300 VRB10G20KT 6SM -TSRA BKN020CB OVC070
     FM290800 10007KT P6SM FEW005 SCT040 BKN150=



000
FTUS44 KLUB 281005 AAD
TAFCDS
TAF AMD
KCDS 281005Z 2810/2906 10007KT P6SM -TSRA SCT040CB OVC080
      TEMPO 2810/2811 VRB10G20KT 5SM TSRA BR BKN040CB
     FM281100 14009KT 5SM BR SCT005 BKN025
     FM281700 17011KT P6SM SCT030 BKN150=



000
FTUS44 KLUB 280938 AAC
TAFCDS
TAF AMD
KCDS 280938Z 2810/2906 12007KT 2SM TSRA BR SCT040CB OVC080
      TEMPO 2810/2811 VRB10G20KT 5SM -TSRA BR BKN040CB
     FM281100 14009KT 5SM BR SCT005 BKN025
     FM281700 17011KT P6SM SCT030 BKN150=



000
FTUS44 KLUB 280938 AAC
TAFCDS
TAF AMD
KCDS 280938Z 2810/2906 12007KT 2SM TSRA BR SCT040CB OVC080
      TEMPO 2810/2811 VRB10G20KT 5SM -TSRA BR BKN040CB
     FM281100 14009KT 5SM BR SCT005 BKN025
     FM281700 17011KT P6SM SCT030 BKN150=



000
FTUS44 KLUB 280721 AAB
TAFCDS
TAF AMD
KCDS 280721Z 2807/2906 01016G28KT 3SM TSRA OVC040CB
      TEMPO 2807/2809 VRB10G20KT 5SM -TSRA SCT040CB BKN080
     FM280900 14009KT 5SM BR SCT005 BKN025
     FM281700 17011KT P6SM SCT030 BKN150=



000
FTUS44 KLUB 280644 AAA
TAFLBB
TAF AMD
KLBB 280644Z 2807/2906 11011KT P6SM BKN025 OVC120
     FM281100 14011KT 6SM BR SCT005 BKN015
     FM281600 17017KT P6SM SCT030 BKN150=



000
FTUS44 KLUB 280644 AAA
TAFLBB
TAF AMD
KLBB 280644Z 2807/2906 11011KT P6SM BKN025 OVC120
     FM281100 14011KT 6SM BR SCT005 BKN015
     FM281600 17017KT P6SM SCT030 BKN150=



000
FTUS44 KLUB 280641 AAA
TAFCDS
TAF AMD
KCDS 280641Z 2807/2906 13011KT P6SM SCT040 BKN150
      TEMPO 2807/2809 VRB30G50KT 1SM +TSRA SCT007 BKN020CB
     FM280900 14009KT 5SM BR SCT005 BKN025
     FM281700 17011KT P6SM SCT030 BKN150=



000
FTUS44 KLUB 280641 AAA
TAFCDS
TAF AMD
KCDS 280641Z 2807/2906 13011KT P6SM SCT040 BKN150
      TEMPO 2807/2809 VRB30G50KT 1SM +TSRA SCT007 BKN020CB
     FM280900 14009KT 5SM BR SCT005 BKN025
     FM281700 17011KT P6SM SCT030 BKN150=



000
FTUS44 KLUB 280520
TAFCDS
TAF
KCDS 280520Z 2806/2906 13011KT P6SM SCT040 BKN150
      TEMPO 2806/2809 VRB20G30KT 5SM TSRA SCT010 BKN030CB
     FM280900 14009KT 5SM BR SCT005 BKN025
     FM281700 17011KT P6SM SCT030 BKN150=



000
FTUS44 KLUB 280520
TAFLBB
TAF
KLBB 280520Z 2806/2906 15015KT P6SM FEW050 BKN150
     FM281100 14011KT 6SM BR SCT005 BKN015
     FM281600 17017KT P6SM SCT030 BKN150=



000
FTUS44 KLUB 280207 AAA
TAFLBB
TAF AMD
KLBB 280207Z 2802/2824 16015KT P6SM VCTS SCT050CB SCT150 BKN250
     FM280400 15011KT P6SM SCT050 BKN250
     FM281000 13009KT 4SM BR SCT005 BKN020
     FM281500 17015KT P6SM SCT025 BKN050 BKN150=



000
FTUS44 KLUB 280207 AAA
TAFLBB
TAF AMD
KLBB 280207Z 2802/2824 16015KT P6SM VCTS SCT050CB SCT150 BKN250
     FM280400 15011KT P6SM SCT050 BKN250
     FM281000 13009KT 4SM BR SCT005 BKN020
     FM281500 17015KT P6SM SCT025 BKN050 BKN150=



000
FTUS44 KLUB 272341
TAFCDS
TAF
KCDS 272341Z 2800/2824 15011KT P6SM SCT040 BKN250
     FM280900 14009KT 5SM BR SCT005 BKN025
     FM281600 18011KT P6SM SCT025 BKN150=



000
FTUS44 KLUB 272341
TAFLBB
TAF
KLBB 272341Z 2800/2824 16015KT P6SM SCT050 BKN250
     FM281000 13009KT 4SM BR SCT005 BKN020
     FM281500 17015KT P6SM SCT025 BKN050 BKN150=



000
FTUS44 KLUB 272247 AAA
TAFLBB
TAF AMD
KLBB 272247Z 2723/2818 17015KT P6SM SCT050 BKN200
     FM280600 15009KT P6SM BKN020=



000
FTUS44 KLUB 271720
TAFCDS
TAF
KCDS 271720Z 2718/2818 16011KT P6SM SCT050 BKN200
     FM272300 14011KT P6SM SCT050 BKN100
     FM280500 14011KT P6SM BKN030=



000
FTUS44 KLUB 271720
TAFLBB
TAF
KLBB 271720Z 2718/2818 19010G15KT P6SM SCT060 BKN200
     FM280600 15009KT P6SM BKN020=



000
FTUS44 KLUB 271720
TAFCDS
TAF
KCDS 271720Z 2718/2818 16011KT P6SM SCT050 BKN200
     FM272300 14011KT P6SM SCT050 BKN100
     FM280500 14011KT P6SM BKN030=



000
FTUS44 KLUB 271720
TAFLBB
TAF
KLBB 271720Z 2718/2818 19010G15KT P6SM SCT060 BKN200
     FM280600 15009KT P6SM BKN020=



000
FTUS44 KLUB 271538 AAB
TAFLBB
TAF AMD
KLBB 271538Z 2716/2812 19011KT P6SM SCT020 BKN250
     FM271700 18013KT P6SM SCT040
     FM280200 15013KT P6SM SCT060 BKN150 PROB30 2802/2806 5SM -TSRA
      BKN040CB=



000
FTUS44 KLUB 271239 AAA
TAFCDS
TAF AMD
KCDS 271239Z 2713/2812 21010KT P6SM SCT250
      TEMPO 2713/2716 BKN025
     FM271600 19013KT P6SM SCT050
     FM272000 15013KT P6SM SCT050 BKN150 PROB30 2722/2802 5SM -TSRA
      BKN025CB=



000
FTUS44 KLUB 271219 AAA
TAFLBB
TAF AMD
KLBB 271219Z 2712/2812 15006KT 4SM BR SCT004 OVC015
     FM271500 17011KT P6SM OVC020
     FM271700 18013KT P6SM SCT040
     FM280200 15013KT P6SM SCT060 BKN150 PROB30 2802/2806 5SM -TSRA
      BKN040CB=



000
FTUS44 KLUB 271219 AAA
TAFLBB
TAF AMD
KLBB 271219Z 2712/2812 15006KT 4SM BR SCT004 OVC015
     FM271500 17011KT P6SM OVC020
     FM271700 18013KT P6SM SCT040
     FM280200 15013KT P6SM SCT060 BKN150 PROB30 2802/2806 5SM -TSRA
      BKN040CB=



000
FTUS44 KLUB 271142
TAFCDS
TAF
KCDS 271142Z 2712/2812 21010KT P6SM SCT250
      TEMPO 2712/2716 BKN015
     FM271600 19013KT P6SM SCT050
     FM272000 15013KT P6SM SCT050 BKN150 PROB30 2721/2801 5SM -TSRA
      BKN025CB=



000
FTUS44 KLUB 271142
TAFLBB
TAF
KLBB 271142Z 2712/2812 13006KT P6SM OVC005
     FM271400 15009KT P6SM OVC008
     FM271700 18013KT P6SM SCT040
     FM280200 15013KT P6SM SCT060 BKN150 PROB30 2802/2806 5SM -TSRA
      BKN040CB=



000
FTUS44 KLUB 271142
TAFCDS
TAF
KCDS 271142Z 2712/2812 21010KT P6SM SCT250
      TEMPO 2712/2716 BKN015
     FM271600 19013KT P6SM SCT050
     FM272000 15013KT P6SM SCT050 BKN150 PROB30 2721/2801 5SM -TSRA
      BKN025CB=



000
FTUS44 KLUB 271142
TAFLBB
TAF
KLBB 271142Z 2712/2812 13006KT P6SM OVC005
     FM271400 15009KT P6SM OVC008
     FM271700 18013KT P6SM SCT040
     FM280200 15013KT P6SM SCT060 BKN150 PROB30 2802/2806 5SM -TSRA
      BKN040CB=



000
FTUS44 KLUB 271031 AAB
TAFLBB
TAF AMD
KLBB 271031Z 2711/2806 13006KT P6SM BKN007
      TEMPO 2711/2715 6SM BR OVC005
     FM271500 18013KT P6SM SCT050=



000
FTUS44 KLUB 270959 AAA
TAFLBB
TAF AMD
KLBB 270959Z 2710/2806 15006KT 6SM BR SCT010
      TEMPO 2710/2714 4SM BR BKN007
     FM271500 18013KT P6SM SCT050=



000
FTUS44 KLUB 270520
TAFLBB
TAF
KLBB 270520Z 2706/2806 19011KT P6SM SCT250
      TEMPO 2711/2715 BKN007
     FM271500 18013KT P6SM SCT050=



000
FTUS44 KLUB 270520
TAFCDS
TAF
KCDS 270520Z 2706/2806 15011KT P6SM SCT250
      TEMPO 2712/2716 BKN015
     FM271600 17013KT P6SM SCT050=



000
FTUS44 KLUB 262320
TAFLBB
TAF
KLBB 262320Z 2700/2724 21011KT P6SM SCT250
     FM270900 18011KT 6SM BR SCT004
     FM271500 19011KT P6SM SCT050=



000
FTUS44 KLUB 262320
TAFCDS
TAF
KCDS 262320Z 2700/2724 16011KT P6SM SCT250
     FM270900 17009KT P6SM SCT015
     FM271500 18013KT P6SM SCT050=



000
FTUS44 KLUB 262320
TAFCDS
TAF
KCDS 262320Z 2700/2724 16011KT P6SM SCT250
     FM270900 17009KT P6SM SCT015
     FM271500 18013KT P6SM SCT050=



000
FTUS44 KLUB 262028 AAA
TAFCDS
TAF AMD
KCDS 262028Z 2620/2718 21010G16KT P6SM FEW060 SCT250
     FM270000 16011KT P6SM FEW070 SCT250
     FM270900 19009KT P6SM SCT010=



000
FTUS44 KLUB 262028 AAA
TAFCDS
TAF AMD
KCDS 262028Z 2620/2718 21010G16KT P6SM FEW060 SCT250
     FM270000 16011KT P6SM FEW070 SCT250
     FM270900 19009KT P6SM SCT010=



000
FTUS44 KLUB 261740
TAFLBB
TAF
KLBB 261740Z 2618/2718 22012G17KT P6SM FEW080 SCT250
     FM270000 17008KT P6SM FEW250
     FM270900 18011KT 6SM BR SCT004=



000
FTUS44 KLUB 261740
TAFCDS
TAF
KCDS 261740Z 2618/2718 20011KT P6SM FEW060 SCT250
     FM270000 16011KT P6SM FEW070 SCT250
     FM270900 19009KT P6SM SCT010=



000
FTUS44 KLUB 261127
TAFCDS
TAF
KCDS 261127Z 2612/2712 16005KT P6SM FEW110
     FM261600 20010KT P6SM SCT100=



000
FTUS44 KLUB 261127
TAFLBB
TAF
KLBB 261127Z 2612/2712 25014KT P6SM FEW250
     FM270000 17008KT P6SM FEW250=



000
FTUS44 KLUB 260520
TAFCDS
TAF
KCDS 260520Z 2606/2706 15005KT P6SM SKC
     FM261000 16005KT 6SM BR SCT015
     FM261600 21010KT P6SM SCT100=



000
FTUS44 KLUB 260520
TAFLBB
TAF
KLBB 260520Z 2606/2706 16008KT P6SM FEW150
     FM261500 26014KT P6SM FEW250
     FM270000 17008KT P6SM FEW250=



000
FTUS44 KLUB 260520
TAFLBB
TAF
KLBB 260520Z 2606/2706 16008KT P6SM FEW150
     FM261500 26014KT P6SM FEW250
     FM270000 17008KT P6SM FEW250=



000
FTUS44 KLUB 260520
TAFCDS
TAF
KCDS 260520Z 2606/2706 15005KT P6SM SKC
     FM261000 16005KT 6SM BR SCT015
     FM261600 21010KT P6SM SCT100=



    US Dept of Commerce
    National Oceanic and Atmospheric Administration
    National Weather Service
    1325 East West Highway
    Silver Spring, MD 20910
    Page Author: NWS Internet Services Team
Disclaimer
Information Quality
Credits
Glossary
Privacy Policy
Freedom of Information Act (FOIA)
About Us
Career Opportunities